ESSD/BLE METAR and TAF weather

Enter ICAO airport designator
Station Type Date Time Source
ESSD METAR 2020/06/05 09:50 UTC NOAA

ESSD 050950Z 10012KT CAVOK 18/08 Q0996


Station Type Date Time Source
ESSD Decoded METAR 2020/06/05 09:50 UTC NOAA

Borlange, Sweden (ESSD) 60-26N 015-31E 0M
Jun 05, 2020 - 05:50 AM EDT / 2020.06.05 0950 UTC
Wind: from the E (100 degrees) at 14 MPH (12 KT):0
Visibility: greater than 7 mile(s):0
Temperature: 64 F (18 C)
Dew Point: 46 F (8 C)
Relative Humidity: 51%
Pressure (altimeter): 29.41 in. Hg (0996 hPa)
ob: ESSD 050950Z 10012KT CAVOK 18/08 Q0996
cycle: 10

Station Type Date Time Source
ESSD TAF 2018/05/02 04:48 UTC NOAA

TAF TAF ESSD 020320Z 0204/0412 27008KT 9999 BKN019 PROB40 0204/0209 BKN006

Example: see airport list